KALW/ALW METAR and TAF weather

Enter ICAO airport designator
Station Type Date Time Source
KALW METAR 2022/12/04 10:53 UTC NOAA

KALW 041053Z AUTO 00000KT 10SM FEW010 M07/M08 A3014 RMK AO2 SLP223 T10671083


Station Type Date Time Source
KALW Decoded METAR 2022/12/04 10:53 UTC NOAA

WALLA WALLA REGIONAL AIRPORT, WA, United States (KALW) 46-06N 118-17W 363M
Dec 04, 2022 - 05:53 AM EST / 2022.12.04 1053 UTC
Wind: Calm:0
Visibility: 10 mile(s):0
Sky conditions: mostly clear
Temperature: 19.9 F (-6.7 C)
Dew Point: 17.1 F (-8.3 C)
Relative Humidity: 88%
Pressure (altimeter): 30.14 in. Hg (1020 hPa)
ob: KALW 041053Z AUTO 00000KT 10SM FEW010 M07/M08 A3014 RMK AO2 SLP223 T10671083
cycle: 11

Station Type Date Time Source
KALW TAF 2022/12/04 08:57 UTC NOAA

TAF
AMD KALW 040754Z 0408/0506 17005KT P6SM BKN009 OVC100
FM041100 VRB03KT 3SM BR BKN015 OVC100
FM041800 18004KT 2SM -SN BR SCT003 OVC020

Example: see airport list